Terminal Aerodrome Forecast
Issued by NWS Jackson, KY

Home | Current Version | Previous Version | Text Only | Print | Product List | Glossary On
Versions: 1 2 3 4 5 6 7 8 9 10 11 12 13 14
000
FTUS43 KJKL 231735
TAFLOZ
TAF
KLOZ 231735Z 2318/2418 20008KT P6SM SCT250
     FM240000 18004KT P6SM BKN120
     FM240600 19005KT P6SM BKN120 WS020/21040KT
     FM241400 20012KT P6SM SCT050=

USA.gov is the U.S. government's official web portal to all federal, state and local government web resources and services.